sensor_id;sensor_type;location;lat;lon;timestamp;temperature;humidity
2855;DHT22;1435;49.472;10.940;2023-07-31T00:00:30;18.40;99.90
2855;DHT22;1435;49.472;10.940;2023-07-31T00:05:33;18.50;99.90
2855;DHT22;1435;49.472;10.940;2023-07-31T00:10:35;18.40;99.90
2855;DHT22;1435;49.472;10.940;2023-07-31T00:15:37;18.30;99.90
2855;DHT22;1435;49.472;10.940;2023-07-31T00:20:40;18.30;99.90
2855;DHT22;1435;49.472;10.940;2023-07-31T00:25:41;18.20;99.90
2855;DHT22;1435;49.472;10.940;2023-07-31T00:30:43;18.20;99.90
2855;DHT22;1435;49.472;10.940;2023-07-31T00:35:46;18.20;99.90
2855;DHT22;1435;49.472;10.940;2023-07-31T00:40:48;18.20;99.90
2855;DHT22;1435;49.472;10.940;2023-07-31T00:45:49;18.20;99.90
2855;DHT22;1435;49.472;10.940;2023-07-31T00:50:52;18.20;99.90
2855;DHT22;1435;49.472;10.940;2023-07-31T00:55:55;18.20;99.90
2855;DHT22;1435;49.472;10.940;2023-07-31T01:00:56;18.20;99.90
2855;DHT22;1435;49.472;10.940;2023-07-31T01:06:08;18.20;99.90
2855;DHT22;1435;49.472;10.940;2023-07-31T01:11:15;18.10;99.90
2855;DHT22;1435;49.472;10.940;2023-07-31T01:16:17;18.10;99.90
2855;DHT22;1435;49.472;10.940;2023-07-31T01:21:30;18.10;99.90
2855;DHT22;1435;49.472;10.940;2023-07-31T01:26:36;18.00;99.90
2855;DHT22;1435;49.472;10.940;2023-07-31T01:31:39;18.10;99.90
2855;DHT22;1435;49.472;10.940;2023-07-31T01:36:43;18.20;99.90
2855;DHT22;1435;49.472;10.940;2023-07-31T01:41:46;18.20;99.90
2855;DHT22;1435;49.472;10.940;2023-07-31T01:46:48;18.10;99.90
2855;DHT22;1435;49.472;10.940;2023-07-31T01:51:49;18.10;99.90
2855;DHT22;1435;49.472;10.940;2023-07-31T01:56:53;18.20;99.90
2855;DHT22;1435;49.472;10.940;2023-07-31T02:01:54;18.20;99.90
2855;DHT22;1435;49.472;10.940;2023-07-31T02:06:56;18.20;99.90
2855;DHT22;1435;49.472;10.940;2023-07-31T02:11:59;18.20;99.90
2855;DHT22;1435;49.472;10.940;2023-07-31T02:17:01;18.10;99.90
2855;DHT22;1435;49.472;10.940;2023-07-31T02:22:03;18.10;99.90
2855;DHT22;1435;49.472;10.940;2023-07-31T02:27:06;18.20;99.90
2855;DHT22;1435;49.472;10.940;2023-07-31T02:32:08;18.20;99.90
2855;DHT22;1435;49.472;10.940;2023-07-31T02:37:09;18.10;99.90
2855;DHT22;1435;49.472;10.940;2023-07-31T02:42:12;18.10;99.90
2855;DHT22;1435;49.472;10.940;2023-07-31T02:47:14;18.10;99.90
2855;DHT22;1435;49.472;10.940;2023-07-31T02:52:16;18.10;99.90
2855;DHT22;1435;49.472;10.940;2023-07-31T02:57:19;18.10;99.90
2855;DHT22;1435;49.472;10.940;2023-07-31T03:02:20;18.00;99.90
2855;DHT22;1435;49.472;10.940;2023-07-31T03:07:22;18.00;99.90
2855;DHT22;1435;49.472;10.940;2023-07-31T03:12:25;18.10;99.90
2855;DHT22;1435;49.472;10.940;2023-07-31T03:17:27;18.10;99.90
2855;DHT22;1435;49.472;10.940;2023-07-31T03:22:28;18.10;99.90
2855;DHT22;1435;49.472;10.940;2023-07-31T03:27:31;18.10;99.90
2855;DHT22;1435;49.472;10.940;2023-07-31T03:32:33;18.10;99.90
2855;DHT22;1435;49.472;10.940;2023-07-31T03:37:35;18.10;99.90
2855;DHT22;1435;49.472;10.940;2023-07-31T03:42:38;18.10;99.90
2855;DHT22;1435;49.472;10.940;2023-07-31T03:47:39;18.20;99.90
2855;DHT22;1435;49.472;10.940;2023-07-31T03:52:41;18.10;99.90
2855;DHT22;1435;49.472;10.940;2023-07-31T03:57:44;18.10;99.90
2855;DHT22;1435;49.472;10.940;2023-07-31T04:02:46;18.10;99.90
2855;DHT22;1435;49.472;10.940;2023-07-31T04:07:48;18.10;99.90
2855;DHT22;1435;49.472;10.940;2023-07-31T04:12:51;17.90;99.90
2855;DHT22;1435;49.472;10.940;2023-07-31T04:17:52;17.90;99.90
2855;DHT22;1435;49.472;10.940;2023-07-31T04:22:54;18.00;99.90
2855;DHT22;1435;49.472;10.940;2023-07-31T04:27:57;17.90;99.90
2855;DHT22;1435;49.472;10.940;2023-07-31T04:32:59;17.90;99.90
2855;DHT22;1435;49.472;10.940;2023-07-31T04:38:00;17.90;99.90
2855;DHT22;1435;49.472;10.940;2023-07-31T04:43:03;17.80;99.90
2855;DHT22;1435;49.472;10.940;2023-07-31T04:48:05;17.70;99.90
2855;DHT22;1435;49.472;10.940;2023-07-31T04:53:07;17.50;99.90
2855;DHT22;1435;49.472;10.940;2023-07-31T04:58:10;17.60;99.90
2855;DHT22;1435;49.472;10.940;2023-07-31T05:03:11;17.70;99.90
2855;DHT22;1435;49.472;10.940;2023-07-31T05:08:13;17.80;99.90
2855;DHT22;1435;49.472;10.940;2023-07-31T05:13:16;17.80;99.90
2855;DHT22;1435;49.472;10.940;2023-07-31T05:18:18;17.90;99.90
2855;DHT22;1435;49.472;10.940;2023-07-31T05:23:19;17.90;99.90
2855;DHT22;1435;49.472;10.940;2023-07-31T05:28:22;17.90;99.90
2855;DHT22;1435;49.472;10.940;2023-07-31T05:33:24;17.90;99.90
2855;DHT22;1435;49.472;10.940;2023-07-31T05:38:26;18.00;99.90
2855;DHT22;1435;49.472;10.940;2023-07-31T05:43:29;18.00;99.90
2855;DHT22;1435;49.472;10.940;2023-07-31T05:48:31;18.00;99.90
2855;DHT22;1435;49.472;10.940;2023-07-31T05:53:32;18.10;99.90
2855;DHT22;1435;49.472;10.940;2023-07-31T05:58:35;18.10;99.90
2855;DHT22;1435;49.472;10.940;2023-07-31T06:03:37;18.20;99.90
2855;DHT22;1435;49.472;10.940;2023-07-31T06:08:39;18.20;99.90
2855;DHT22;1435;49.472;10.940;2023-07-31T06:13:42;18.20;99.90
2855;DHT22;1435;49.472;10.940;2023-07-31T06:18:45;18.20;99.90
2855;DHT22;1435;49.472;10.940;2023-07-31T06:23:46;18.30;99.90
2855;DHT22;1435;49.472;10.940;2023-07-31T06:28:50;18.30;99.90
2855;DHT22;1435;49.472;10.940;2023-07-31T06:33:52;18.30;99.90
2855;DHT22;1435;49.472;10.940;2023-07-31T06:38:53;18.20;99.90
2855;DHT22;1435;49.472;10.940;2023-07-31T06:43:56;18.30;99.90
2855;DHT22;1435;49.472;10.940;2023-07-31T06:48:58;18.30;99.90
2855;DHT22;1435;49.472;10.940;2023-07-31T06:54:00;18.30;99.90
2855;DHT22;1435;49.472;10.940;2023-07-31T06:59:03;18.40;99.90
2855;DHT22;1435;49.472;10.940;2023-07-31T07:04:05;18.40;99.90
2855;DHT22;1435;49.472;10.940;2023-07-31T07:09:06;18.50;99.90
2855;DHT22;1435;49.472;10.940;2023-07-31T07:14:09;18.50;99.90
2855;DHT22;1435;49.472;10.940;2023-07-31T07:19:11;18.50;99.90
2855;DHT22;1435;49.472;10.940;2023-07-31T07:24:13;18.60;99.90
2855;DHT22;1435;49.472;10.940;2023-07-31T07:29:16;18.70;99.90
2855;DHT22;1435;49.472;10.940;2023-07-31T07:34:18;18.70;99.90
2855;DHT22;1435;49.472;10.940;2023-07-31T07:39:19;18.70;99.90
2855;DHT22;1435;49.472;10.940;2023-07-31T07:44:22;18.70;99.90
2855;DHT22;1435;49.472;10.940;2023-07-31T07:49:24;18.80;99.90
2855;DHT22;1435;49.472;10.940;2023-07-31T07:54:26;18.90;99.90
2855;DHT22;1435;49.472;10.940;2023-07-31T07:59:29;18.90;99.90
2855;DHT22;1435;49.472;10.940;2023-07-31T08:04:33;18.90;99.90
2855;DHT22;1435;49.472;10.940;2023-07-31T08:09:34;18.90;99.90
2855;DHT22;1435;49.472;10.940;2023-07-31T08:14:37;19.00;99.90
2855;DHT22;1435;49.472;10.940;2023-07-31T08:19:39;19.00;99.90
2855;DHT22;1435;49.472;10.940;2023-07-31T08:24:41;19.10;99.90
2855;DHT22;1435;49.472;10.940;2023-07-31T08:29:44;19.20;99.90
2855;DHT22;1435;49.472;10.940;2023-07-31T08:40:49;19.40;99.90
2855;DHT22;1435;49.472;10.940;2023-07-31T08:45:53;19.40;99.90
2855;DHT22;1435;49.472;10.940;2023-07-31T08:50:54;19.50;99.90
2855;DHT22;1435;49.472;10.940;2023-07-31T08:55:58;19.50;99.90
2855;DHT22;1435;49.472;10.940;2023-07-31T09:01:04;19.60;99.90
2855;DHT22;1435;49.472;10.940;2023-07-31T09:06:06;19.80;99.90
2855;DHT22;1435;49.472;10.940;2023-07-31T09:11:08;19.80;99.90
2855;DHT22;1435;49.472;10.940;2023-07-31T09:16:12;19.90;99.90
2855;DHT22;1435;49.472;10.940;2023-07-31T09:21:13;20.10;99.90
2855;DHT22;1435;49.472;10.940;2023-07-31T09:26:29;20.10;99.90
2855;DHT22;1435;49.472;10.940;2023-07-31T09:31:40;20.20;99.90
2855;DHT22;1435;49.472;10.940;2023-07-31T09:36:43;20.30;99.90
2855;DHT22;1435;49.472;10.940;2023-07-31T09:41:46;20.30;99.90
2855;DHT22;1435;49.472;10.940;2023-07-31T09:46:50;20.50;99.90
2855;DHT22;1435;49.472;10.940;2023-07-31T09:51:51;20.50;99.90
2855;DHT22;1435;49.472;10.940;2023-07-31T09:56:54;20.50;99.90
2855;DHT22;1435;49.472;10.940;2023-07-31T10:01:58;20.60;99.90
2855;DHT22;1435;49.472;10.940;2023-07-31T10:07:03;20.60;99.90
2855;DHT22;1435;49.472;10.940;2023-07-31T10:12:08;20.60;99.90
2855;DHT22;1435;49.472;10.940;2023-07-31T10:17:12;20.60;99.90
2855;DHT22;1435;49.472;10.940;2023-07-31T10:22:15;20.60;99.90
2855;DHT22;1435;49.472;10.940;2023-07-31T10:27:19;20.70;99.90
2855;DHT22;1435;49.472;10.940;2023-07-31T10:32:22;20.70;99.90
2855;DHT22;1435;49.472;10.940;2023-07-31T10:37:27;20.80;99.90
2855;DHT22;1435;49.472;10.940;2023-07-31T10:42:33;20.90;99.90
2855;DHT22;1435;49.472;10.940;2023-07-31T10:47:42;21.00;99.90
2855;DHT22;1435;49.472;10.940;2023-07-31T10:52:47;21.10;99.90
2855;DHT22;1435;49.472;10.940;2023-07-31T10:57:49;21.20;99.90
2855;DHT22;1435;49.472;10.940;2023-07-31T11:03:02;21.30;99.90
2855;DHT22;1435;49.472;10.940;2023-07-31T11:08:11;21.30;99.90
2855;DHT22;1435;49.472;10.940;2023-07-31T11:13:13;21.40;99.90
2855;DHT22;1435;49.472;10.940;2023-07-31T11:18:16;21.40;99.90
2855;DHT22;1435;49.472;10.940;2023-07-31T11:23:19;21.30;99.90
2855;DHT22;1435;49.472;10.940;2023-07-31T11:28:21;21.30;99.90
2855;DHT22;1435;49.472;10.940;2023-07-31T11:33:24;21.30;99.90
2855;DHT22;1435;49.472;10.940;2023-07-31T11:38:27;21.40;99.90
2855;DHT22;1435;49.472;10.940;2023-07-31T11:43:30;21.30;99.90
2855;DHT22;1435;49.472;10.940;2023-07-31T11:48:34;21.30;99.90
2855;DHT22;1435;49.472;10.940;2023-07-31T11:53:39;21.40;99.90
2855;DHT22;1435;49.472;10.940;2023-07-31T11:58:43;21.40;99.90
2855;DHT22;1435;49.472;10.940;2023-07-31T12:03:49;21.40;99.90
2855;DHT22;1435;49.472;10.940;2023-07-31T12:08:51;21.40;99.90
2855;DHT22;1435;49.472;10.940;2023-07-31T12:13:53;21.50;99.90
2855;DHT22;1435;49.472;10.940;2023-07-31T12:18:56;21.50;99.90
2855;DHT22;1435;49.472;10.940;2023-07-31T12:23:58;21.50;99.90
2855;DHT22;1435;49.472;10.940;2023-07-31T12:28:59;21.50;99.90
2855;DHT22;1435;49.472;10.940;2023-07-31T12:39:19;21.60;99.90
2855;DHT22;1435;49.472;10.940;2023-07-31T12:44:21;21.70;99.90
2855;DHT22;1435;49.472;10.940;2023-07-31T12:49:24;21.70;99.90
2855;DHT22;1435;49.472;10.940;2023-07-31T12:54:26;21.70;99.90
2855;DHT22;1435;49.472;10.940;2023-07-31T12:59:27;21.80;99.90
2855;DHT22;1435;49.472;10.940;2023-07-31T13:04:31;21.80;99.90
2855;DHT22;1435;49.472;10.940;2023-07-31T13:09:33;21.80;99.90
2855;DHT22;1435;49.472;10.940;2023-07-31T13:14:34;21.80;99.90
2855;DHT22;1435;49.472;10.940;2023-07-31T13:19:37;21.90;99.90
2855;DHT22;1435;49.472;10.940;2023-07-31T13:24:39;22.00;99.90
2855;DHT22;1435;49.472;10.940;2023-07-31T13:29:41;22.00;99.90
2855;DHT22;1435;49.472;10.940;2023-07-31T13:34:44;22.20;99.90
2855;DHT22;1435;49.472;10.940;2023-07-31T13:39:46;22.40;99.90
2855;DHT22;1435;49.472;10.940;2023-07-31T13:44:47;22.40;99.90
2855;DHT22;1435;49.472;10.940;2023-07-31T13:49:51;22.50;99.90
2855;DHT22;1435;49.472;10.940;2023-07-31T13:54:52;22.60;99.90
2855;DHT22;1435;49.472;10.940;2023-07-31T13:59:54;22.70;99.90
2855;DHT22;1435;49.472;10.940;2023-07-31T14:04:57;22.80;99.90
2855;DHT22;1435;49.472;10.940;2023-07-31T14:09:59;22.80;99.90
2855;DHT22;1435;49.472;10.940;2023-07-31T14:15:00;22.80;99.90
2855;DHT22;1435;49.472;10.940;2023-07-31T14:20:06;22.80;99.90
2855;DHT22;1435;49.472;10.940;2023-07-31T14:25:08;22.90;99.90
2855;DHT22;1435;49.472;10.940;2023-07-31T14:30:11;23.00;99.90
2855;DHT22;1435;49.472;10.940;2023-07-31T14:35:14;23.00;99.90
2855;DHT22;1435;49.472;10.940;2023-07-31T14:40:15;22.90;99.90
2855;DHT22;1435;49.472;10.940;2023-07-31T14:45:17;22.90;99.90
2855;DHT22;1435;49.472;10.940;2023-07-31T14:50:21;22.90;99.90
2855;DHT22;1435;49.472;10.940;2023-07-31T14:55:23;22.80;99.90
2855;DHT22;1435;49.472;10.940;2023-07-31T15:00:25;22.80;99.90
2855;DHT22;1435;49.472;10.940;2023-07-31T15:05:28;22.80;99.90
2855;DHT22;1435;49.472;10.940;2023-07-31T15:10:30;22.80;99.90
2855;DHT22;1435;49.472;10.940;2023-07-31T15:15:32;22.80;99.90
2855;DHT22;1435;49.472;10.940;2023-07-31T15:20:36;22.80;99.90
2855;DHT22;1435;49.472;10.940;2023-07-31T15:25:37;22.80;99.90
2855;DHT22;1435;49.472;10.940;2023-07-31T15:30:39;22.70;99.90
2855;DHT22;1435;49.472;10.940;2023-07-31T15:35:42;22.60;99.90
2855;DHT22;1435;49.472;10.940;2023-07-31T15:40:44;22.50;99.90
2855;DHT22;1435;49.472;10.940;2023-07-31T15:45:45;22.50;99.90
2855;DHT22;1435;49.472;10.940;2023-07-31T15:50:49;22.60;99.90
2855;DHT22;1435;49.472;10.940;2023-07-31T15:55:50;22.60;99.90
2855;DHT22;1435;49.472;10.940;2023-07-31T16:00:52;22.60;99.90
2855;DHT22;1435;49.472;10.940;2023-07-31T16:05:56;22.50;99.90
2855;DHT22;1435;49.472;10.940;2023-07-31T16:10:57;22.50;99.90
2855;DHT22;1435;49.472;10.940;2023-07-31T16:15:59;22.60;99.90
2855;DHT22;1435;49.472;10.940;2023-07-31T16:21:02;22.60;99.90
2855;DHT22;1435;49.472;10.940;2023-07-31T16:26:04;22.70;99.90
2855;DHT22;1435;49.472;10.940;2023-07-31T16:31:06;22.70;99.90
2855;DHT22;1435;49.472;10.940;2023-07-31T16:36:09;22.80;99.90
2855;DHT22;1435;49.472;10.940;2023-07-31T16:41:10;22.70;99.90
2855;DHT22;1435;49.472;10.940;2023-07-31T16:46:12;22.70;99.90
2855;DHT22;1435;49.472;10.940;2023-07-31T16:51:15;22.80;99.90
2855;DHT22;1435;49.472;10.940;2023-07-31T16:56:17;22.80;99.90
2855;DHT22;1435;49.472;10.940;2023-07-31T17:01:19;22.80;99.90
2855;DHT22;1435;49.472;10.940;2023-07-31T17:06:22;22.80;99.90
2855;DHT22;1435;49.472;10.940;2023-07-31T17:11:23;22.80;99.90
2855;DHT22;1435;49.472;10.940;2023-07-31T17:16:25;22.90;99.90
2855;DHT22;1435;49.472;10.940;2023-07-31T17:21:30;22.80;99.90
2855;DHT22;1435;49.472;10.940;2023-07-31T17:26:32;22.80;99.90
2855;DHT22;1435;49.472;10.940;2023-07-31T17:31:34;22.80;99.90
2855;DHT22;1435;49.472;10.940;2023-07-31T17:36:39;22.80;99.90
2855;DHT22;1435;49.472;10.940;2023-07-31T17:41:41;22.80;99.90
2855;DHT22;1435;49.472;10.940;2023-07-31T17:46:43;22.80;99.90
2855;DHT22;1435;49.472;10.940;2023-07-31T17:51:46;22.80;99.90
2855;DHT22;1435;49.472;10.940;2023-07-31T17:56:48;22.80;99.90
2855;DHT22;1435;49.472;10.940;2023-07-31T18:01:49;22.80;99.90
2855;DHT22;1435;49.472;10.940;2023-07-31T18:06:52;22.80;99.90
2855;DHT22;1435;49.472;10.940;2023-07-31T18:11:54;22.80;99.90
2855;DHT22;1435;49.472;10.940;2023-07-31T18:16:57;22.80;99.90
2855;DHT22;1435;49.472;10.940;2023-07-31T18:22:00;22.70;99.90
2855;DHT22;1435;49.472;10.940;2023-07-31T18:27:01;22.60;99.90
2855;DHT22;1435;49.472;10.940;2023-07-31T18:32:04;22.60;99.90
2855;DHT22;1435;49.472;10.940;2023-07-31T18:37:07;22.60;99.90
2855;DHT22;1435;49.472;10.940;2023-07-31T18:42:09;22.50;99.90
2855;DHT22;1435;49.472;10.940;2023-07-31T18:47:11;22.50;99.90
2855;DHT22;1435;49.472;10.940;2023-07-31T18:52:14;22.50;99.90
2855;DHT22;1435;49.472;10.940;2023-07-31T18:57:16;22.40;99.90
2855;DHT22;1435;49.472;10.940;2023-07-31T19:02:17;22.30;99.90
2855;DHT22;1435;49.472;10.940;2023-07-31T19:07:20;22.40;99.90
2855;DHT22;1435;49.472;10.940;2023-07-31T19:12:22;22.40;99.90
2855;DHT22;1435;49.472;10.940;2023-07-31T19:17:24;22.40;99.90
2855;DHT22;1435;49.472;10.940;2023-07-31T19:22:27;22.40;99.90
2855;DHT22;1435;49.472;10.940;2023-07-31T19:27:28;22.40;99.90
2855;DHT22;1435;49.472;10.940;2023-07-31T19:32:30;22.40;99.90
2855;DHT22;1435;49.472;10.940;2023-07-31T19:37:33;22.30;99.90
2855;DHT22;1435;49.472;10.940;2023-07-31T19:42:35;22.20;99.90
2855;DHT22;1435;49.472;10.940;2023-07-31T19:47:37;22.10;99.90
2855;DHT22;1435;49.472;10.940;2023-07-31T19:52:40;22.00;99.90
2855;DHT22;1435;49.472;10.940;2023-07-31T19:57:42;21.90;99.90
2855;DHT22;1435;49.472;10.940;2023-07-31T20:02:44;21.80;99.90
2855;DHT22;1435;49.472;10.940;2023-07-31T20:07:47;21.70;99.90
2855;DHT22;1435;49.472;10.940;2023-07-31T20:12:47;21.60;99.90
2855;DHT22;1435;49.472;10.940;2023-07-31T20:17:50;21.50;99.90
2855;DHT22;1435;49.472;10.940;2023-07-31T20:22:53;21.40;99.90
2855;DHT22;1435;49.472;10.940;2023-07-31T20:27:55;21.30;99.90
2855;DHT22;1435;49.472;10.940;2023-07-31T20:32:56;21.30;99.90
2855;DHT22;1435;49.472;10.940;2023-07-31T20:38:00;21.20;99.90
2855;DHT22;1435;49.472;10.940;2023-07-31T20:43:01;21.10;99.90
2855;DHT22;1435;49.472;10.940;2023-07-31T20:48:03;21.00;99.90
2855;DHT22;1435;49.472;10.940;2023-07-31T20:53:08;21.00;99.90
2855;DHT22;1435;49.472;10.940;2023-07-31T20:58:09;20.90;99.90
2855;DHT22;1435;49.472;10.940;2023-07-31T21:03:11;20.80;99.90
2855;DHT22;1435;49.472;10.940;2023-07-31T21:08:14;20.80;99.90
2855;DHT22;1435;49.472;10.940;2023-07-31T21:13:16;20.70;99.90
2855;DHT22;1435;49.472;10.940;2023-07-31T21:18:18;20.60;99.90
2855;DHT22;1435;49.472;10.940;2023-07-31T21:23:21;20.60;99.90
2855;DHT22;1435;49.472;10.940;2023-07-31T21:28:23;20.50;99.90
2855;DHT22;1435;49.472;10.940;2023-07-31T21:33:25;20.40;99.90
2855;DHT22;1435;49.472;10.940;2023-07-31T21:38:28;20.40;99.90
2855;DHT22;1435;49.472;10.940;2023-07-31T21:43:30;20.30;99.90
2855;DHT22;1435;49.472;10.940;2023-07-31T21:48:31;20.30;99.90
2855;DHT22;1435;49.472;10.940;2023-07-31T21:53:34;20.20;99.90
2855;DHT22;1435;49.472;10.940;2023-07-31T21:58:36;20.20;99.90
2855;DHT22;1435;49.472;10.940;2023-07-31T22:03:38;20.10;99.90
2855;DHT22;1435;49.472;10.940;2023-07-31T22:08:41;20.10;99.90
2855;DHT22;1435;49.472;10.940;2023-07-31T22:13:43;20.00;99.90
2855;DHT22;1435;49.472;10.940;2023-07-31T22:18:45;20.00;99.90
2855;DHT22;1435;49.472;10.940;2023-07-31T22:23:48;19.90;99.90
2855;DHT22;1435;49.472;10.940;2023-07-31T22:28:49;19.90;99.90
2855;DHT22;1435;49.472;10.940;2023-07-31T22:33:51;19.90;99.90
2855;DHT22;1435;49.472;10.940;2023-07-31T22:38:54;19.80;99.90
2855;DHT22;1435;49.472;10.940;2023-07-31T22:43:56;19.80;99.90
2855;DHT22;1435;49.472;10.940;2023-07-31T22:48:58;19.80;99.90
2855;DHT22;1435;49.472;10.940;2023-07-31T22:54:02;19.70;99.90
2855;DHT22;1435;49.472;10.940;2023-07-31T22:59:03;19.70;99.90
2855;DHT22;1435;49.472;10.940;2023-07-31T23:04:05;19.70;99.90
2855;DHT22;1435;49.472;10.940;2023-07-31T23:09:08;19.70;99.90
2855;DHT22;1435;49.472;10.940;2023-07-31T23:14:10;19.60;99.90
2855;DHT22;1435;49.472;10.940;2023-07-31T23:19:11;19.60;99.90
2855;DHT22;1435;49.472;10.940;2023-07-31T23:24:14;19.60;99.90
2855;DHT22;1435;49.472;10.940;2023-07-31T23:29:16;19.60;99.90
2855;DHT22;1435;49.472;10.940;2023-07-31T23:34:18;19.60;99.90
2855;DHT22;1435;49.472;10.940;2023-07-31T23:39:21;19.50;99.90
2855;DHT22;1435;49.472;10.940;2023-07-31T23:44:23;19.50;99.90
2855;DHT22;1435;49.472;10.940;2023-07-31T23:49:24;19.50;99.90
2855;DHT22;1435;49.472;10.940;2023-07-31T23:54:28;19.50;99.90
2855;DHT22;1435;49.472;10.940;2023-07-31T23:59:31;19.50;99.90
